Time;durP1;ratioP1;P1;durP2;ratioP2;P2;SDS_P1;SDS_P2;PMS_P1;PMS_P2;Temp;Humidity;BMP_temperature;BMP_pressure;BME280_temperature;BME280_humidity;BME280_pressure;Samples;Min_cycle;Max_cycle;Signal;HPM_P1;HPM_P2
2023/06/07 00:00:23;;;;;;;4.25;3.25;;;;;;;18.04;53.55;100535.66;4933476;29;20115;-70
2023/06/07 00:02:51;;;;;;;4.95;2.92;;;;;;;18.04;53.13;100535.66;4938383;29;20047;-70
2023/06/07 00:05:21;;;;;;;6.40;3.70;;;;;;;18.04;53.41;100535.66;4934534;29;20118;-71
2023/06/07 00:07:50;;;;;;;4.57;3.10;;;;;;;18.06;53.88;100535.53;4923579;29;20054;-71
2023/06/07 00:10:17;;;;;;;4.60;3.17;;;;;;;18.09;53.58;100532.63;4924085;29;20051;-71
2023/06/07 00:12:44;;;;;;;6.00;3.30;;;;;;;18.04;53.64;100532.97;4942757;29;20601;-70
2023/06/07 00:15:11;;;;;;;4.65;3.10;;;;;;;18.05;54.13;100541.88;4935336;29;20103;-72
2023/06/07 00:17:40;;;;;;;4.72;3.45;;;;;;;18.01;54.16;100525.16;4930746;29;20075;-70
2023/06/07 00:20:08;;;;;;;4.70;3.50;;;;;;;18.04;54.24;100541.00;4914835;29;20143;-71
2023/06/07 00:22:35;;;;;;;3.55;2.92;;;;;;;18.01;54.87;100537.72;4932090;29;20055;-71
2023/06/07 00:25:02;;;;;;;5.30;3.40;;;;;;;17.98;54.91;100536.09;4913627;29;20039;-72
2023/06/07 00:27:30;;;;;;;5.45;3.42;;;;;;;17.98;55.31;100543.28;4936436;29;20536;-72
2023/06/07 00:29:58;;;;;;;5.35;3.50;;;;;;;17.91;55.74;100531.34;4925893;29;20116;-71
2023/06/07 00:32:25;;;;;;;5.53;3.47;;;;;;;17.94;55.97;100534.66;4942490;29;20219;-72
2023/06/07 00:34:54;;;;;;;5.07;3.38;;;;;;;17.94;56.30;100528.44;4912627;29;20051;-71
2023/06/07 00:37:20;;;;;;;6.63;3.78;;;;;;;18.00;56.50;100531.50;4920278;29;20477;-71
2023/06/07 00:39:48;;;;;;;9.93;3.25;;;;;;;18.01;56.70;100537.72;4924386;29;20409;-71
2023/06/07 00:42:16;;;;;;;5.50;3.22;;;;;;;18.00;56.56;100533.31;4934804;29;20043;-71
2023/06/07 00:44:42;;;;;;;4.72;3.65;;;;;;;17.96;56.78;100529.16;4935515;29;20072;-71
2023/06/07 00:47:09;;;;;;;4.30;3.63;;;;;;;17.98;56.92;100529.91;4967943;28;20114;-70
2023/06/07 00:49:36;;;;;;;4.85;3.33;;;;;;;17.98;56.77;100519.19;4951890;29;20055;-71
2023/06/07 00:52:03;;;;;;;4.50;3.05;;;;;;;18.00;57.42;100528.81;4947267;29;20039;-71
2023/06/07 00:54:31;;;;;;;5.00;3.50;;;;;;;18.02;57.10;100526.03;4948818;28;20111;-71
2023/06/07 00:56:58;;;;;;;5.28;3.42;;;;;;;18.06;56.94;100524.81;4957400;28;20043;-71
2023/06/07 00:59:26;;;;;;;5.32;3.58;;;;;;;18.08;56.86;100528.25;4941671;28;20110;-71
2023/06/07 01:01:55;;;;;;;6.40;3.47;;;;;;;18.08;56.50;100517.53;4940842;29;20434;-71
2023/06/07 01:04:24;;;;;;;4.43;3.30;;;;;;;18.09;56.91;100522.78;4940211;29;20051;-71
2023/06/07 01:06:54;;;;;;;5.55;3.40;;;;;;;18.10;57.12;100515.59;4933228;29;20051;-71
2023/06/07 01:09:23;;;;;;;4.93;3.20;;;;;;;18.15;56.82;100516.94;4954450;28;20114;-72
2023/06/07 01:11:53;;;;;;;4.63;3.03;;;;;;;18.13;57.13;100509.97;4958366;28;20130;-70
2023/06/07 01:14:21;;;;;;;5.30;3.38;;;;;;;18.14;57.01;100511.69;4953407;29;20142;-72
2023/06/07 01:16:52;;;;;;;;;;;;;;;18.13;57.39;100518.00;4929894;29;20047;-72
2023/06/07 01:19:27;;;;;;;4.03;3.20;;;;;;;18.17;57.28;100514.13;4948650;29;20155;-71
2023/06/07 01:22:00;;;;;;;6.35;3.58;;;;;;;18.15;57.02;100505.34;4933623;29;20070;-71
2023/06/07 01:24:29;;;;;;;6.22;3.85;;;;;;;18.14;57.04;100507.19;4938481;29;20384;-72
2023/06/07 01:26:59;;;;;;;5.00;3.17;;;;;;;18.12;57.62;100511.78;4952127;28;20065;-71
2023/06/07 01:29:27;;;;;;;6.32;3.70;;;;;;;18.18;57.72;100508.66;4945682;28;20138;-71
2023/06/07 01:31:57;;;;;;;4.50;3.15;;;;;;;18.20;58.08;100513.91;4949954;28;20106;-72
2023/06/07 01:34:25;;;;;;;3.75;3.30;;;;;;;18.17;58.10;100498.06;4949467;28;20051;-71
2023/06/07 01:36:55;;;;;;;5.07;3.60;;;;;;;18.20;58.15;100513.91;4951522;28;20065;-72
2023/06/07 01:39:25;;;;;;;6.70;3.20;;;;;;;18.14;58.67;100509.84;4934977;28;20053;-72
2023/06/07 01:41:54;;;;;;;4.38;3.45;;;;;;;18.13;58.57;100505.47;4945855;28;20130;-72
2023/06/07 01:44:21;;;;;;;5.03;2.90;;;;;;;18.11;59.21;100507.41;4933022;28;20560;-72
2023/06/07 01:46:48;;;;;;;3.88;3.22;;;;;;;18.12;59.43;100506.44;4948376;28;20043;-72
2023/06/07 01:49:18;;;;;;;5.30;3.53;;;;;;;18.16;59.90;100502.56;4932880;29;20047;-71
2023/06/07 01:51:47;;;;;;;3.30;2.95;;;;;;;18.16;59.41;100501.69;4935398;28;20039;-71
2023/06/07 01:54:15;;;;;;;4.28;3.38;;;;;;;18.16;59.69;100496.34;4950288;28;20406;-71
2023/06/07 01:56:57;;;;;;;3.97;3.28;;;;;;;18.16;59.37;100490.97;4942405;28;20145;-72
2023/06/07 01:59:53;;;;;;;6.45;3.30;;;;;;;18.14;59.31;100484.88;4949253;28;20258;-72
2023/06/07 02:02:42;;;;;;;4.22;3.30;;;;;;;18.13;59.96;100491.22;4932710;29;20058;-71
2023/06/07 02:05:32;;;;;;;4.60;3.22;;;;;;;18.17;60.29;100490.88;4945668;28;20054;-71
2023/06/07 02:08:07;;;;;;;7.03;3.40;;;;;;;18.17;59.72;100484.66;4948758;28;20105;-72
2023/06/07 02:10:34;;;;;;;6.30;3.42;;;;;;;18.14;59.76;100488.41;4950796;28;20090;-71
2023/06/07 02:13:02;;;;;;;9.70;3.45;;;;;;;18.07;60.26;100486.34;4936119;29;20040;-71
2023/06/07 02:15:30;;;;;;;6.25;3.63;;;;;;;17.94;60.82;100464.13;4950915;28;20065;-71
2023/06/07 02:18:01;;;;;;;5.55;3.75;;;;;;;17.98;61.14;100482.53;4951831;28;20138;-72
2023/06/07 02:20:33;;;;;;;7.57;3.47;;;;;;;17.92;61.90;100476.78;4949553;28;20043;-71
2023/06/07 02:23:00;;;;;;;6.38;3.67;;;;;;;17.90;62.74;100484.09;4922791;29;20126;-71
2023/06/07 02:25:30;;;;;;;5.18;3.47;;;;;;;17.78;63.34;100469.81;4944898;28;20051;-72
2023/06/07 02:27:58;;;;;;;11.65;3.65;;;;;;;17.80;64.44;100479.41;4929379;28;20571;-72
2023/06/07 02:30:25;;;;;;;4.68;3.33;;;;;;;17.79;64.71;100479.53;4932901;28;20047;-71
2023/06/07 02:32:53;;;;;;;4.03;3.50;;;;;;;17.77;64.97;100470.78;4949865;28;20075;-71
2023/06/07 02:35:22;;;;;;;4.68;3.50;;;;;;;17.66;65.40;100468.03;4931940;28;20049;-71
2023/06/07 02:37:49;;;;;;;4.60;3.30;;;;;;;17.59;66.07;100470.31;4935111;28;20130;-71
2023/06/07 02:40:16;;;;;;;6.28;3.60;;;;;;;17.61;66.32;100475.53;4944097;28;20059;-71
2023/06/07 02:42:44;;;;;;;4.85;3.40;;;;;;;17.57;66.45;100474.91;4946548;28;20047;-71
2023/06/07 02:45:12;;;;;;;5.43;3.80;;;;;;;17.59;66.87;100474.78;4950789;28;20074;-72
2023/06/07 02:47:39;;;;;;;4.53;3.67;;;;;;;17.58;67.46;100471.25;4947369;28;20051;-71
2023/06/07 02:50:07;;;;;;;7.10;3.92;;;;;;;17.53;67.44;100468.06;4945704;28;20067;-71
2023/06/07 02:52:38;;;;;;;4.75;3.50;;;;;;;17.45;68.31;100470.47;4931847;29;20434;-71
2023/06/07 02:55:05;;;;;;;4.93;3.67;;;;;;;17.40;69.03;100476.16;4921548;29;20055;-72
2023/06/07 02:57:32;;;;;;;5.03;3.72;;;;;;;17.37;69.26;100476.38;4947434;28;20043;-72
2023/06/07 02:59:59;;;;;;;4.68;3.58;;;;;;;17.32;69.86;100472.31;4930470;29;20053;-72
2023/06/07 03:02:27;;;;;;;5.60;4.00;;;;;;;17.33;70.10;100477.56;4947023;28;20410;-72
2023/06/07 03:04:57;;;;;;;4.28;3.05;;;;;;;17.36;70.06;100474.66;4934091;29;20043;-72
2023/06/07 03:07:24;;;;;;;6.20;4.38;;;;;;;17.40;69.86;100480.66;4932715;28;20130;-72
2023/06/07 03:09:51;;;;;;;4.78;3.85;;;;;;;17.34;70.91;100483.78;4934024;28;20637;-72
2023/06/07 03:12:18;;;;;;;6.28;4.00;;;;;;;17.26;71.30;100478.16;4936517;29;20679;-72
2023/06/07 03:14:47;;;;;;;6.20;4.03;;;;;;;17.19;71.47;100483.94;4937127;28;21926;-71
2023/06/07 03:17:15;;;;;;;5.13;3.85;;;;;;;17.12;71.51;100488.03;4938998;28;20047;-71
2023/06/07 03:19:42;;;;;;;6.65;3.80;;;;;;;17.02;71.75;100489.66;4947941;29;20049;-72
2023/06/07 03:22:09;;;;;;;6.65;3.92;;;;;;;16.96;72.62;100487.44;4965206;28;20067;-71
2023/06/07 03:24:37;;;;;;;5.07;3.55;;;;;;;16.94;73.33;100496.53;4947349;29;20058;-71
2023/06/07 03:27:08;;;;;;;8.88;3.90;;;;;;;16.94;73.90;100497.38;4957113;28;20055;-71
2023/06/07 03:29:34;;;;;;;7.13;3.80;;;;;;;16.92;74.41;100487.75;4951221;28;20130;-71
2023/06/07 03:32:02;;;;;;;6.07;4.00;;;;;;;16.92;74.47;100485.09;4949700;28;20048;-71
2023/06/07 03:34:34;;;;;;;6.88;4.03;;;;;;;16.85;75.38;100481.97;4929899;29;20051;-72
2023/06/07 03:37:00;;;;;;;7.22;3.92;;;;;;;16.93;76.50;100497.50;4933926;29;20134;-72
2023/06/07 03:39:30;;;;;;;5.97;3.97;;;;;;;16.98;76.20;100496.22;4920051;28;20051;-72
2023/06/07 03:41:57;;;;;;;7.15;4.25;;;;;;;17.00;75.84;100496.09;4951920;28;20134;-69
2023/06/07 03:44:24;;;;;;;4.97;3.60;;;;;;;17.01;76.02;100500.47;4951487;28;20131;-71
2023/06/07 03:46:52;;;;;;;4.53;3.83;;;;;;;17.02;75.64;100505.69;4952062;28;20039;-71
2023/06/07 03:49:19;;;;;;;5.68;3.85;;;;;;;17.01;76.26;100490.63;4951412;28;20051;-71
2023/06/07 03:51:45;;;;;;;5.78;3.65;;;;;;;17.05;76.78;100505.50;4938232;29;20093;-72
2023/06/07 03:54:13;;;;;;;4.40;3.35;;;;;;;16.98;76.70;100496.22;4939389;29;20051;-70
2023/06/07 03:56:40;;;;;;;5.15;3.70;;;;;;;17.01;77.87;100504.00;4958542;28;20365;-72
2023/06/07 03:59:06;;;;;;;5.63;3.72;;;;;;;17.02;77.21;100505.69;4945759;28;20055;-72
2023/06/07 04:01:33;;;;;;;6.13;4.00;;;;;;;17.04;76.85;100495.75;4951222;28;20043;-71
2023/06/07 04:04:00;;;;;;;5.18;3.47;;;;;;;16.97;77.54;100490.97;4953418;28;20050;-72
2023/06/07 04:06:28;;;;;;;5.25;3.70;;;;;;;17.03;78.19;100507.41;4952497;28;20051;-70
2023/06/07 04:08:59;;;;;;;7.30;3.80;;;;;;;17.01;78.66;100495.13;4952487;28;20422;-72
2023/06/07 04:11:27;;;;;;;5.10;3.90;;;;;;;17.00;78.83;100504.97;4950470;28;20052;-71
2023/06/07 04:13:54;;;;;;;5.80;4.15;;;;;;;17.00;79.22;100496.94;4953224;28;20126;-71
2023/06/07 04:16:21;;;;;;;9.32;4.25;;;;;;;17.04;79.10;100501.09;4926890;29;20059;-72
2023/06/07 04:18:48;;;;;;;6.13;4.15;;;;;;;17.13;79.32;100503.13;4936750;29;20130;-71
2023/06/07 04:21:14;;;;;;;5.05;4.25;;;;;;;17.26;79.00;100507.59;4951405;28;20421;-72
2023/06/07 04:23:41;;;;;;;5.80;3.92;;;;;;;17.33;78.00;100501.66;4941115;29;20051;-72
2023/06/07 04:26:09;;;;;;;4.78;4.10;;;;;;;17.22;78.45;100479.34;4952336;28;20063;-72
2023/06/07 04:28:36;;;;;;;4.95;4.07;;;;;;;17.32;78.41;100504.44;4937499;29;20043;-72
2023/06/07 04:31:07;;;;;;;7.75;3.75;;;;;;;17.35;78.87;100499.72;4933629;29;20107;-71
2023/06/07 04:33:35;;;;;;;7.07;3.97;;;;;;;17.39;79.60;100497.69;4938389;29;20118;-72
2023/06/07 04:36:02;;;;;;;4.68;4.00;;;;;;;17.41;79.61;100493.09;4951608;28;20039;-71
2023/06/07 04:38:29;;;;;;;5.50;4.10;;;;;;;17.52;79.39;100502.03;4934445;28;20039;-71
2023/06/07 04:41:00;;;;;;;7.20;3.88;;;;;;;17.58;78.68;100495.38;4934725;29;20119;-72
2023/06/07 04:43:28;;;;;;;5.22;3.45;;;;;;;17.75;76.65;100508.38;4937054;28;20398;-71
2023/06/07 04:45:55;;;;;;;4.93;4.15;;;;;;;17.87;77.49;100501.25;4959400;28;20119;-72
2023/06/07 04:48:24;;;;;;;6.97;4.38;;;;;;;17.97;76.94;100501.38;4962614;29;20051;-71
2023/06/07 04:50:52;;;;;;;5.00;4.50;;;;;;;18.00;77.53;100495.81;4947114;29;20039;-70
2023/06/07 04:53:22;;;;;;;7.55;4.18;;;;;;;17.91;76.53;100480.44;4947243;28;20065;-72
2023/06/07 04:55:50;;;;;;;6.90;3.95;;;;;;;18.05;76.92;100499.00;4956235;28;20053;-71
2023/06/07 04:58:18;;;;;;;5.82;4.03;;;;;;;17.98;76.62;100490.56;4922079;28;20062;-70
2023/06/07 05:00:47;;;;;;;9.25;4.03;;;;;;;17.97;76.57;100502.25;4934856;28;20783;-73
2023/06/07 05:03:21;;;;;;;6.70;4.43;;;;;;;18.02;78.56;100500.09;4934081;29;20129;-70
2023/06/07 05:05:49;;;;;;;6.18;4.32;;;;;;;18.14;78.46;100514.34;4954566;28;20049;-72
2023/06/07 05:08:16;;;;;;;6.28;4.25;;;;;;;18.23;79.03;100508.31;4949789;28;20130;-72
2023/06/07 05:10:43;;;;;;;5.90;4.47;;;;;;;18.35;74.78;100501.13;4949841;28;20106;-72
2023/06/07 05:13:10;;;;;;;6.72;4.03;;;;;;;18.49;75.05;100511.66;4930267;29;20047;-71
2023/06/07 05:15:36;;;;;;;6.60;4.45;;;;;;;18.49;72.01;100501.78;4952494;28;20040;-71
2023/06/07 05:18:07;;;;;;;5.95;4.50;;;;;;;18.54;72.45;100507.66;4932860;28;20071;-71
2023/06/07 05:20:34;;;;;;;6.70;4.38;;;;;;;18.62;73.06;100508.88;4950112;28;20139;-72
2023/06/07 05:23:02;;;;;;;7.50;4.95;;;;;;;18.65;71.86;100508.66;4953966;28;20075;-71
2023/06/07 05:25:29;;;;;;;6.88;4.32;;;;;;;18.66;72.45;100505.00;4948659;28;20047;-71
2023/06/07 05:27:56;;;;;;;7.78;4.57;;;;;;;18.67;72.60;100506.69;4941675;28;20051;-71
2023/06/07 05:30:37;;;;;;;5.20;4.30;;;;;;;18.69;73.67;100510.13;4948263;28;20146;-72
2023/06/07 05:33:08;;;;;;;6.13;4.18;;;;;;;18.75;74.29;100504.25;4944691;28;20047;-71
2023/06/07 05:35:36;;;;;;;7.20;4.82;;;;;;;18.78;73.84;100501.34;4946094;28;20039;-70
2023/06/07 05:38:03;;;;;;;7.43;4.78;;;;;;;18.81;74.33;100501.94;4944769;28;20047;-70
2023/06/07 05:40:30;;;;;;;8.35;4.65;;;;;;;18.84;71.36;100508.91;4924226;28;20123;-72
2023/06/07 05:42:57;;;;;;;8.13;4.88;;;;;;;18.87;69.24;100511.34;4944770;28;20149;-71
2023/06/07 05:45:25;;;;;;;6.35;4.35;;;;;;;18.82;68.50;100510.84;4941103;28;20047;-70
2023/06/07 05:47:52;;;;;;;4.50;3.92;;;;;;;18.78;69.22;100512.06;4936667;29;20051;-72
2023/06/07 05:50:20;;;;;;;5.82;4.50;;;;;;;18.81;70.72;100509.16;4955081;28;20138;-71
2023/06/07 05:52:52;;;;;;;7.80;4.50;;;;;;;18.81;72.36;100509.16;4933340;28;20098;-71
2023/06/07 05:55:26;;;;;;;6.47;4.25;;;;;;;18.85;73.32;100513.31;4949423;28;20901;-71
2023/06/07 05:57:57;;;;;;;7.72;4.47;;;;;;;18.85;72.73;100519.53;4939539;29;20054;-71
2023/06/07 06:00:24;;;;;;;7.20;4.60;;;;;;;18.77;74.15;100502.31;4951708;28;20085;-70
2023/06/07 06:02:52;;;;;;;6.78;4.20;;;;;;;18.77;72.54;100505.00;4932412;29;20057;-71
2023/06/07 06:05:27;;;;;;;6.33;4.50;;;;;;;18.84;71.57;100517.81;4937021;28;20058;-72
2023/06/07 06:07:56;;;;;;;8.00;4.22;;;;;;;18.91;70.45;100527.06;4955863;28;20050;-71
2023/06/07 06:10:25;;;;;;;6.05;4.43;;;;;;;18.92;71.08;100517.19;4945314;28;20077;-71
2023/06/07 06:12:53;;;;;;;6.70;4.45;;;;;;;18.94;68.97;100517.94;4949458;28;20038;-71
2023/06/07 06:15:21;;;;;;;4.68;3.78;;;;;;;18.98;69.50;100523.91;4944984;28;20051;-72
2023/06/07 06:17:54;;;;;;;5.60;4.43;;;;;;;19.00;69.20;100520.13;4948461;28;20115;-71
2023/06/07 06:20:21;;;;;;;7.15;5.07;;;;;;;19.09;72.50;100515.84;4914039;28;20052;-71
2023/06/07 06:22:49;;;;;;;8.55;4.20;;;;;;;19.14;71.15;100527.06;4942384;28;20130;-71
2023/06/07 06:25:16;;;;;;;4.97;4.47;;;;;;;19.16;71.58;100509.88;4941482;28;20047;-71
2023/06/07 06:27:42;;;;;;;7.82;4.20;;;;;;;19.25;69.77;100511.78;4932949;28;20062;-71
2023/06/07 06:30:10;;;;;;;6.97;4.68;;;;;;;19.58;70.47;100515.41;4945789;28;20496;-71
2023/06/07 06:32:38;;;;;;;6.85;4.15;;;;;;;19.90;66.71;100516.28;4929675;29;20069;-71
2023/06/07 06:35:09;;;;;;;5.93;4.40;;;;;;;20.38;63.44;100515.81;4945587;28;20047;-73
2023/06/07 06:37:41;;;;;;;7.30;4.57;;;;;;;20.71;62.91;100505.81;4946654;28;20142;-72
2023/06/07 06:40:08;;;;;;;5.65;4.70;;;;;;;21.06;62.30;100517.03;4948229;28;20058;-70
2023/06/07 06:42:35;;;;;;;7.38;4.80;;;;;;;21.27;63.12;100514.28;4947391;28;20054;-72
2023/06/07 06:45:03;;;;;;;7.38;4.95;;;;;;;21.40;60.25;100514.03;4933720;28;20138;-71
2023/06/07 06:47:30;;;;;;;7.55;4.68;;;;;;;21.52;63.87;100516.47;4941702;28;20074;-71
2023/06/07 06:50:00;;;;;;;9.02;4.90;;;;;;;21.88;60.34;100525.72;4947943;28;20102;-72
2023/06/07 06:52:28;;;;;;;11.85;5.78;;;;;;;22.27;56.21;100515.81;4931055;28;20051;-72
2023/06/07 06:54:55;;;;;;;9.55;4.90;;;;;;;22.72;58.04;100512.44;4950831;28;20043;-71
2023/06/07 06:57:21;;;;;;;6.50;4.80;;;;;;;23.29;54.25;100529.44;4929568;28;20049;-72
2023/06/07 06:59:48;;;;;;;5.90;4.80;;;;;;;23.73;51.90;100522.38;4917017;28;20054;-72
2023/06/07 07:02:16;;;;;;;6.45;5.05;;;;;;;23.96;52.41;100531.69;4930995;28;20047;-72
2023/06/07 07:04:44;;;;;;;5.70;4.68;;;;;;;24.35;51.84;100536.81;4949270;28;20055;-71
2023/06/07 07:07:12;;;;;;;6.93;4.83;;;;;;;24.87;49.01;100526.81;4919273;29;20055;-71
2023/06/07 07:09:39;;;;;;;9.77;5.20;;;;;;;24.85;47.57;100534.28;4947398;28;20047;-71
2023/06/07 07:12:07;;;;;;;6.38;5.10;;;;;;;24.76;47.48;100513.56;4948246;28;20402;-71
2023/06/07 07:14:33;;;;;;;5.32;4.82;;;;;;;24.74;49.64;100529.97;4920344;28;20127;-71
2023/06/07 07:17:01;;;;;;;9.38;5.18;;;;;;;24.68;49.49;100522.50;4946606;28;20086;-71
2023/06/07 07:19:29;;;;;;;8.93;5.38;;;;;;;24.70;49.63;100520.50;4933764;28;20051;-71
2023/06/07 07:21:55;;;;;;;8.82;5.55;;;;;;;24.64;49.17;100534.66;4952773;28;20052;-70
2023/06/07 07:24:22;;;;;;;9.13;4.65;;;;;;;24.76;48.86;100529.81;4941532;28;20117;-70
2023/06/07 07:26:51;;;;;;;8.02;4.82;;;;;;;24.82;50.04;100521.91;4945715;28;20134;-71
2023/06/07 07:29:17;;;;;;;8.05;5.32;;;;;;;24.90;47.67;100531.94;4960462;28;20051;-74
2023/06/07 07:31:45;;;;;;;8.02;4.93;;;;;;;24.96;48.23;100530.47;4951328;28;20102;-70
2023/06/07 07:34:12;;;;;;;7.10;5.25;;;;;;;25.05;47.57;100518.66;4948219;29;20118;-71
2023/06/07 07:36:43;;;;;;;8.40;4.82;;;;;;;25.10;47.29;100513.59;4941134;29;20066;-71
2023/06/07 07:39:11;;;;;;;8.98;5.20;;;;;;;25.28;47.57;100529.78;4952668;28;20047;-73
2023/06/07 07:41:40;;;;;;;8.05;4.82;;;;;;;25.46;46.41;100527.81;4965926;28;20055;-70
2023/06/07 07:44:08;;;;;;;6.83;5.00;;;;;;;25.43;45.46;100534.41;4957223;28;20059;-72
2023/06/07 07:46:36;;;;;;;5.93;4.75;;;;;;;25.19;48.20;100528.88;4949489;28;20050;-71
2023/06/07 07:49:04;;;;;;;7.97;5.18;;;;;;;25.36;46.85;100530.66;4958435;28;20051;-70
2023/06/07 07:51:31;;;;;;;6.63;4.82;;;;;;;25.58;45.06;100526.50;4939356;28;20047;-70
2023/06/07 07:54:00;;;;;;;7.03;5.35;;;;;;;25.74;46.34;100534.69;4952055;28;20062;-70
2023/06/07 07:56:26;;;;;;;8.93;5.75;;;;;;;25.63;45.99;100512.47;4953824;28;20586;-71
2023/06/07 07:58:53;;;;;;;9.90;6.03;;;;;;;25.25;46.34;100524.69;4934313;28;20052;-72
2023/06/07 08:01:23;;;;;;;9.07;5.78;;;;;;;24.71;47.31;100530.28;4952725;28;20055;-71
2023/06/07 08:03:51;;;;;;;9.00;5.40;;;;;;;24.62;49.28;100531.25;4931787;28;20057;-72
2023/06/07 08:06:18;;;;;;;6.03;4.93;;;;;;;24.80;46.99;100526.63;4945188;28;20082;-71
2023/06/07 08:08:47;;;;;;;8.93;4.82;;;;;;;25.14;44.81;100521.25;4944685;28;20458;-71
2023/06/07 08:11:14;;;;;;;6.53;5.13;;;;;;;25.42;45.32;100524.56;4926421;28;20057;-71
2023/06/07 08:13:41;;;;;;;7.32;5.40;;;;;;;25.72;46.28;100523.16;4910788;28;20051;-71
2023/06/07 08:16:09;;;;;;;7.85;5.30;;;;;;;25.88;43.49;100518.78;4938280;28;20047;-71
2023/06/07 08:18:38;;;;;;;8.90;5.10;;;;;;;25.84;44.44;100512.84;4942773;28;20102;-71
2023/06/07 08:21:05;;;;;;;7.50;5.40;;;;;;;25.75;44.71;100508.44;4931343;28;20066;-72
2023/06/07 08:23:31;;;;;;;7.78;4.90;;;;;;;25.61;44.82;100522.59;4931766;28;20078;-71
2023/06/07 08:25:59;;;;;;;6.28;4.97;;;;;;;25.63;43.09;100509.75;4943220;28;20047;-72
2023/06/07 08:28:26;;;;;;;10.20;5.05;;;;;;;25.97;44.39;100518.63;4928726;28;20098;-73
2023/06/07 08:30:54;;;;;;;7.90;4.78;;;;;;;26.15;41.82;100516.59;4926005;28;20074;-71
2023/06/07 08:33:21;;;;;;;7.30;4.95;;;;;;;26.23;42.23;100523.03;4945370;28;20130;-70
2023/06/07 08:35:48;;;;;;;7.13;5.00;;;;;;;26.03;41.62;100517.94;4943181;28;20043;-71
2023/06/07 08:38:16;;;;;;;8.32;4.90;;;;;;;26.03;42.93;100511.66;4950652;28;20048;-70
2023/06/07 08:40:42;;;;;;;8.00;4.75;;;;;;;26.02;40.85;100528.97;4943726;28;20102;-72
2023/06/07 08:43:09;;;;;;;6.75;4.75;;;;;;;25.95;41.73;100515.25;4948066;28;20071;-72
2023/06/07 08:45:36;;;;;;;7.00;4.68;;;;;;;25.90;43.45;100514.03;4934717;28;20043;-71
2023/06/07 08:48:12;;;;;;;6.85;5.00;;;;;;;25.75;43.33;100513.84;4947172;28;20140;-71
2023/06/07 08:50:41;;;;;;;9.85;5.25;;;;;;;25.27;42.59;100519.94;4946714;28;20151;-72
2023/06/07 08:53:14;;;;;;;5.10;4.05;;;;;;;24.92;45.20;100513.66;4938742;28;20117;-71
2023/06/07 08:55:42;;;;;;;9.00;5.13;;;;;;;;;;4973229;23;20050;-73
2023/06/07 08:58:13;;;;;;;6.28;4.82;;;;;;;25.26;44.06;100513.69;4978508;28;20058;-71
2023/06/07 09:00:40;;;;;;;6.47;4.90;;;;;;;25.36;43.41;100508.97;4973176;28;20312;-71
2023/06/07 09:03:10;;;;;;;6.18;4.78;;;;;;;25.52;42.16;100516.28;4976273;28;20047;-72
2023/06/07 09:05:39;;;;;;;5.40;4.50;;;;;;;25.30;41.72;100504.22;4964234;28;20415;-71
2023/06/07 09:08:10;;;;;;;8.07;5.00;;;;;;;25.39;42.79;100516.78;4961845;28;20047;-72
2023/06/07 09:10:37;;;;;;;5.20;4.53;;;;;;;25.58;42.79;100517.50;4949125;28;20055;-72
2023/06/07 09:13:05;;;;;;;8.00;5.45;;;;;;;25.33;43.05;100509.31;4948188;28;20596;-73
2023/06/07 09:15:32;;;;;;;6.10;4.78;;;;;;;25.11;43.45;100518.03;4961928;28;20074;-72
2023/06/07 09:18:01;;;;;;;5.97;5.13;;;;;;;24.88;44.11;100519.56;4950054;28;20097;-72
2023/06/07 09:20:31;;;;;;;8.53;6.20;;;;;;;24.51;45.49;100517.13;4950296;28;20473;-72
2023/06/07 09:23:11;;;;;;;8.85;5.22;;;;;;;23.91;46.56;100525.94;4950013;28;20485;-73
2023/06/07 09:25:38;;;;;;;7.68;5.57;;;;;;;23.50;47.47;100519.19;4957968;28;20055;-73
2023/06/07 09:28:13;;;;;;;6.32;5.40;;;;;;;23.55;47.81;100524.19;4949264;28;21474;-72
2023/06/07 09:30:55;;;;;;;5.78;4.90;;;;;;;23.53;48.46;100523.50;4942728;28;20130;-72
2023/06/07 09:33:30;;;;;;;7.85;4.95;;;;;;;23.77;48.04;100523.72;4947840;28;20129;-73
2023/06/07 09:36:07;;;;;;;5.90;5.30;;;;;;;24.24;46.43;100523.53;4940179;28;20077;-72
2023/06/07 09:38:36;;;;;;;6.20;5.10;;;;;;;24.58;45.34;100523.59;4956133;28;20055;-71
2023/06/07 09:41:09;;;;;;;6.22;5.57;;;;;;;24.60;44.71;100517.03;4942700;28;20052;-72
2023/06/07 09:43:43;;;;;;;7.93;5.82;;;;;;;24.65;44.97;100511.13;4930498;28;20718;-73
2023/06/07 09:46:11;;;;;;;7.80;5.30;;;;;;;24.77;44.08;100513.41;4953525;28;20057;-73
2023/06/07 09:48:50;;;;;;;10.55;5.75;;;;;;;24.94;43.95;100524.38;4957445;28;20043;-73
2023/06/07 09:51:21;;;;;;;6.90;5.78;;;;;;;24.88;43.42;100522.25;4958638;28;20047;-74
2023/06/07 09:53:57;;;;;;;8.50;5.50;;;;;;;24.88;43.28;100533.09;4959400;28;20402;-73
2023/06/07 09:56:25;;;;;;;6.28;4.70;;;;;;;24.97;43.63;100532.19;4945940;28;20061;-73
2023/06/07 09:59:06;;;;;;;7.38;5.20;;;;;;;;;;4956012;28;20042;-73
2023/06/07 10:01:45;;;;;;;8.20;5.53;;;;;;;;;;4947084;28;20105;-73
2023/06/07 10:04:13;;;;;;;7.95;5.25;;;;;;;25.12;43.58;100528.69;4961287;28;20074;-72
2023/06/07 10:06:42;;;;;;;8.27;5.10;;;;;;;25.10;43.74;100532.56;4971580;28;20113;-72
2023/06/07 10:09:11;;;;;;;5.78;5.18;;;;;;;25.13;44.43;100516.84;4965704;28;20074;-72
2023/06/07 10:11:41;;;;;;;7.57;4.85;;;;;;;25.22;43.91;100525.84;4930960;28;20055;-72
2023/06/07 10:14:14;;;;;;;5.18;4.68;;;;;;;25.44;43.97;100516.28;4961903;28;20059;-74
2023/06/07 10:16:50;;;;;;;9.05;5.22;;;;;;;25.68;43.12;100512.81;4957562;28;20050;-72
2023/06/07 10:19:23;;;;;;;6.25;5.65;;;;;;;25.84;42.82;100505.53;4963204;28;20042;-73
2023/06/07 10:21:53;;;;;;;8.60;4.90;;;;;;;25.66;42.32;100506.69;4963151;28;20074;-72
2023/06/07 10:24:52;;;;;;;6.53;4.95;;;;;;;25.63;43.43;100498.91;4943454;28;20405;-72
2023/06/07 10:27:23;;;;;;;;;;;;;;;25.69;42.98;100498.22;4912473;28;20211;-72
2023/06/07 10:30:01;;;;;;;8.57;5.30;;;;;;;25.57;42.49;100504.97;4959504;28;19981;-72
2023/06/07 10:32:36;;;;;;;6.18;5.00;;;;;;;25.20;45.00;100494.50;4957536;28;20050;-73
2023/06/07 10:35:07;;;;;;;5.18;4.45;;;;;;;25.09;45.06;100498.38;4960922;28;20157;-74
2023/06/07 10:37:36;;;;;;;6.97;4.95;;;;;;;25.01;44.30;100492.94;4947094;28;20043;-73
2023/06/07 10:40:10;;;;;;;7.63;4.82;;;;;;;24.82;44.27;100486.69;4946725;28;20158;-74
2023/06/07 10:42:41;;;;;;;8.43;4.85;;;;;;;24.74;46.42;100486.66;4941819;28;20062;-73
2023/06/07 10:45:15;;;;;;;8.13;4.82;;;;;;;24.87;47.41;100490.78;4944534;28;20053;-74
2023/06/07 10:47:44;;;;;;;5.47;4.80;;;;;;;24.80;45.49;100487.88;4959197;28;20066;-75
2023/06/07 10:50:26;;;;;;;6.53;5.00;;;;;;;24.87;44.69;100486.19;4946644;28;20047;-73
2023/06/07 10:52:55;;;;;;;7.97;4.95;;;;;;;25.00;44.43;100477.69;4956228;28;20059;-74
2023/06/07 10:55:26;;;;;;;5.15;4.72;;;;;;;24.97;44.86;100486.97;4955225;28;20047;-74
2023/06/07 10:57:54;;;;;;;5.72;4.72;;;;;;;24.99;44.84;100476.81;4958199;28;20520;-74
2023/06/07 11:00:34;;;;;;;5.00;4.47;;;;;;;25.10;45.69;100484.66;4956369;28;20174;-73
2023/06/07 11:03:04;;;;;;;6.22;4.80;;;;;;;25.16;45.28;100488.59;4954130;28;20625;-72
2023/06/07 11:05:53;;;;;;;6.07;4.90;;;;;;;25.03;44.45;100486.31;4966986;28;20051;-73
2023/06/07 11:08:28;;;;;;;4.97;4.47;;;;;;;24.87;45.17;100479.97;4965924;28;20047;-70
2023/06/07 11:10:59;;;;;;;6.20;5.43;;;;;;;24.80;45.46;100486.00;4956380;28;20047;-71
2023/06/07 11:13:27;;;;;;;7.03;4.70;;;;;;;24.61;45.54;100491.66;4941519;28;20066;-72
2023/06/07 11:16:22;;;;;;;6.80;4.88;;;;;;;24.48;46.37;100483.13;4938066;28;20122;-73
2023/06/07 11:19:07;;;;;;;5.03;4.40;;;;;;;24.49;47.03;100484.81;4958285;28;20050;-70
2023/06/07 11:21:55;;;;;;;5.13;4.63;;;;;;;24.42;46.59;100484.59;4967526;28;20050;-74
2023/06/07 11:24:24;;;;;;;6.40;4.95;;;;;;;24.39;46.43;100475.97;4948851;28;20035;-78
2023/06/07 11:26:50;;;;;;;6.03;4.63;;;;;;;24.41;47.13;100466.66;4961795;28;20055;-72
2023/06/07 11:29:18;;;;;;;8.35;5.38;;;;;;;24.69;46.84;100475.47;4975107;28;20059;-76
2023/06/07 11:31:59;;;;;;;7.70;4.85;;;;;;;25.02;46.11;100476.50;4957867;28;20042;-76
2023/06/07 11:34:29;;;;;;;7.45;5.80;;;;;;;25.28;44.75;100464.72;4942428;28;20513;-77
2023/06/07 11:37:10;;;;;;;6.05;5.03;;;;;;;25.30;45.21;100455.44;4961964;28;20051;-78